ETEB 060756Z AUTO 21004KT 9999 CLR 11/01 A3021 RMK AO2 SLP246 T01050005 $ ETIK 060756Z AUTO 00000KT 9999 CLR 11/03 A3022 RMK AO2 SLP242 T01110029 $ EDDE 060750Z 17007KT 120V200 CAVOK 13/M00 Q1022 NOSIG EDDF 060750Z 22004KT 180V240 CAVOK 12/01 Q1022 NOSIG ETIC 060756Z AUTO 13004KT 9999 CLR 11/M01 A3021 RMK AO2 SLP234 T01081007 $ EDQM 060750Z 16007KT 100V190 CAVOK 09/M02 Q1023 ETIH 060756Z AUTO 12007KT 9999 CLR 11/M01 A3023 RMK AO2 SLP245 T01141014 $ ETSI 060720Z 08002KT 9999 09/M01 Q1023 BLU+BLU+ EDDP 060750Z 17006KT CAVOK 11/01 Q1023 NOSIG EDDM 060750Z 24005KT 200V290 CAVOK 10/02 Q1023 NOSIG ETSN 060720Z VRB02KT 9999 08/M00 Q1023 BLU+ ETHN 060720Z 16006KT 9999 11/00 Q1022 BLU+BLU+ EDDN 060750Z 15006KT 110V190 CAVOK 12/M01 Q1023 NOSIG EDDS 060750Z 08003KT 020V130 CAVOK 11/03 Q1023 NOSIG

METAR Messwerte

Klicken Sie auf einen Ort, um die 36h-Historie abzurufen

Ort
m ü. NN
Zeit Temperatur Taupunkt Rel.
Luftfeuchte
Luftdruck:
Altimeter
NN
Station
Wind in Beaufort
(Knoten)
Sichtweite
(Meter)
Wolken
(Meter über Grund)
Wettererscheinung
Ansbach
467
Mo 06.04. 09:5611150 %1023
1024
968
SSW 2 (4)>= 10000  
Bad Windsheim / Illesheim
325
Mo 06.04. 09:5611358 %1023
1024
984
Windstill>= 10000  
Erfurt-Bindersleben
323
Mo 06.04. 09:5013-041 %1022
1022
984
S 3 (7)
OSO - SSW
>= 10000Nicht signifikant 
Frankfurt
113
Mo 06.04. 09:5012147 %1022
1022
1008
SW 2 (4)
S - WSW
>= 10000Nicht signifikant 
Grafenwöhr
415
Mo 06.04. 09:5611-143 %1023
1024
974
SO 2 (4)>= 10000  
Hof
568
Mo 06.04. 09:509-246 %1023
1025
956
SSO 3 (7)
O - S
>= 10000Nicht signifikant 
Hohenfels
442
Mo 06.04. 09:5611-143 %1024
1025
972
OSO 3 (7)>= 10000  
Ingolstadt
370
Mo 06.04. 09:209-149 %1023
1024
979
O 1 (2)>= 10000  
Leipzig-Schkeuditz
149
Mo 06.04. 09:5011150 %1023
1023
1005
S 2 (6)>= 10000Nicht signifikant 
München
447
Mo 06.04. 09:5010257 %1023
1024
970
WSW 2 (5)
SSW - WNW
>= 10000Nicht signifikant 
Neuburg/Donau
387
Mo 06.04. 09:208-057 %1023
1024
977
Uml 1 (2)>= 10000  
Niederstetten
473
Mo 06.04. 09:2011047 %1022
1023
966
SSO 2 (6)>= 10000  
Nürnberg
312
Mo 06.04. 09:5012-140 %1023
1023
986
SSO 2 (6)
OSO - S
>= 10000Nicht signifikant 
Stuttgart
419
Mo 06.04. 09:5011358 %1023
1024
973
O 2 (3)
NNO - SO
>= 10000Nicht signifikant 

Altimeter: Einstellung am Altimeter (Höhenmesser), die Höhe 0 muss auf diesen Luftdruckwert zeigen, damit das Gerät die Stationshöhe richtig anzeigt.

NN: Luftdruck reduziert auf "Normal Null", auf Meereshöhe, dieser von der Temperatur abhängige Wert wird bisweilen unkorrekt einfach als "Luftdruck" bezeichnet. Eigentlich nur eine fiktive Größe, die es erlaubt, Stationen auf unterschiedlichen Höhen miteinander zu vergleichen.

Station: Realer Luftdruck an der Station.